Time;durP1;ratioP1;P1;durP2;ratioP2;P2;SDS_P1;SDS_P2;PMS_P1;PMS_P2;Temp;Humidity;BMP_temperature;BMP_pressure;BME280_temperature;BME280_humidity;BME280_pressure;Samples;Min_cycle;Max_cycle;Signal;HPM_P1;HPM_P2
2022/06/25 00:00:13;;;;;;;2.47;2.20;;;17.10;99.90;;;17.51;69.01;97340.31;5045115;28;20041;-44
2022/06/25 00:02:41;;;;;;;3.28;1.98;;;17.20;99.90;;;17.53;68.76;97335.53;5045865;28;20049;-46
2022/06/25 00:05:27;;;;;;;2.78;2.40;;;17.20;99.90;;;17.55;68.77;97333.47;5045076;28;20045;-43
2022/06/25 00:07:56;;;;;;;6.30;2.08;;;17.20;99.90;;;17.52;68.81;97331.19;5044867;28;20051;-46
2022/06/25 00:10:25;;;;;;;2.20;1.90;;;17.20;99.90;;;17.51;68.60;97333.06;5044004;28;20797;-48
2022/06/25 00:12:53;;;;;;;3.35;2.17;;;17.20;99.90;;;17.48;68.72;97336.16;5045443;28;20049;-47
2022/06/25 00:15:21;;;;;;;2.67;2.38;;;17.10;99.90;;;17.50;68.82;97344.03;5045493;28;20067;-46
2022/06/25 00:17:49;;;;;;;1.90;1.75;;;17.10;99.90;;;17.51;68.69;97348.38;5044689;28;20344;-44
2022/06/25 00:20:16;;;;;;;2.80;2.53;;;17.20;99.90;;;17.52;68.71;97348.19;5044784;28;20120;-44
2022/06/25 00:22:44;;;;;;;2.38;1.92;;;17.20;99.90;;;17.53;68.51;97349.00;5044823;28;20059;-48
2022/06/25 00:25:12;;;;;;;2.92;2.10;;;17.20;99.90;;;17.51;68.51;97354.59;5044846;28;20053;-44
2022/06/25 00:27:40;;;;;;;3.35;2.10;;;17.20;99.90;;;17.46;68.68;97345.50;5044309;28;20045;-44
2022/06/25 00:30:08;;;;;;;4.43;1.88;;;17.10;99.90;;;17.42;68.60;97358.53;5044776;28;20056;-46
2022/06/25 00:32:37;;;;;;;2.90;1.95;;;17.00;99.90;;;17.38;68.74;97351.94;5044847;28;20046;-45
2022/06/25 00:35:05;;;;;;;3.13;1.80;;;17.10;99.90;;;17.37;68.92;97355.69;5044434;28;20053;-45
2022/06/25 00:37:33;;;;;;;2.80;2.10;;;17.00;99.90;;;17.35;68.92;97354.22;5044372;28;20050;-46
2022/06/25 00:40:03;;;;;;;2.65;2.10;;;17.00;99.90;;;17.30;68.90;97357.56;5044527;28;20049;-44
2022/06/25 00:42:31;;;;;;;2.42;2.13;;;16.90;99.90;;;17.29;69.12;97362.13;5043032;28;20057;-45
2022/06/25 00:44:59;;;;;;;2.78;1.90;;;16.90;99.90;;;17.26;69.02;97362.53;5044412;28;20064;-43
2022/06/25 00:47:28;;;;;;;2.65;1.90;;;16.90;99.90;;;17.22;69.11;97360.47;5043440;28;20049;-50
2022/06/25 00:49:56;;;;;;;4.30;2.70;;;16.90;99.90;;;17.22;69.11;97355.91;5043777;28;20053;-44
2022/06/25 00:52:25;;;;;;;5.20;3.05;;;16.90;99.90;;;17.20;69.29;97355.31;5045108;28;20251;-43
2022/06/25 00:54:58;;;;;;;2.67;2.20;;;16.90;99.90;;;17.14;69.21;97350.75;5059890;28;20348;-43
2022/06/25 00:57:28;;;;;;;2.92;2.15;;;16.80;99.90;;;17.11;69.29;97354.69;5059318;28;20055;-47
2022/06/25 01:00:02;;;;;;;2.38;1.75;;;16.80;99.90;;;17.06;69.55;97357.19;5044067;28;20053;-45
2022/06/25 01:02:31;;;;;;;2.63;1.98;;;16.70;99.90;;;17.09;69.35;97354.06;5044854;28;20057;-44
2022/06/25 01:04:59;;;;;;;4.78;2.42;;;16.70;99.90;;;17.07;69.49;97358.00;5043928;28;20045;-46
2022/06/25 01:07:27;;;;;;;3.13;1.83;;;16.70;99.90;;;17.05;69.46;97358.22;5043591;28;20045;-46
2022/06/25 01:09:56;;;;;;;4.85;2.28;;;16.70;99.90;;;17.07;69.52;97356.13;5058938;28;20045;-50
2022/06/25 01:12:24;;;;;;;3.05;2.22;;;16.80;99.90;;;17.09;69.42;97354.06;5042832;28;20060;-43
2022/06/25 01:15:04;;;;;;;3.35;1.90;;;16.80;99.90;;;17.06;69.40;97356.34;5042115;28;20046;-46
2022/06/25 01:17:32;;;;;;;4.93;2.38;;;16.70;99.90;;;17.08;69.42;97355.13;5059023;28;20057;-49
2022/06/25 01:20:00;;;;;;;4.65;2.28;;;16.70;99.90;;;17.06;69.48;97359.03;5042135;28;20344;-46
2022/06/25 01:22:29;;;;;;;3.55;2.15;;;16.70;99.90;;;17.03;69.47;97360.28;5042898;28;20049;-45
2022/06/25 01:24:57;;;;;;;3.42;2.22;;;16.70;99.90;;;17.03;69.61;97364.84;5043415;28;20049;-45
2022/06/25 01:27:25;;;;;;;3.58;2.10;;;16.70;99.90;;;16.99;69.54;97367.13;5043459;28;20047;-47
2022/06/25 01:29:53;;;;;;;3.28;2.08;;;16.60;99.90;;;16.98;69.60;97365.47;5042103;28;20049;-46
2022/06/25 01:32:21;;;;;;;3.00;2.15;;;16.70;99.90;;;16.97;69.53;97369.19;5043423;28;20054;-46
2022/06/25 01:34:49;;;;;;;2.40;1.70;;;16.60;99.90;;;16.96;69.36;97369.41;5041749;28;20055;-48
2022/06/25 01:37:17;;;;;;;2.53;2.00;;;16.60;99.90;;;16.92;69.52;97369.84;5042129;28;20241;-47
2022/06/25 01:39:45;;;;;;;3.47;2.20;;;16.60;99.90;;;16.90;69.53;97371.06;5043060;28;20049;-45
2022/06/25 01:42:58;;;;;;;3.47;1.70;;;16.60;99.90;;;16.90;69.50;97368.38;5043365;28;20071;-49
2022/06/25 01:45:02;;;;;;;7.80;2.13;;;16.50;99.90;;;16.90;69.50;97368.38;5041909;28;20071;-46
2022/06/25 01:47:30;;;;;;;3.85;2.60;;;16.60;99.90;;;16.91;69.59;97372.72;5043048;28;20045;-46
2022/06/25 01:49:58;;;;;;;2.15;1.80;;;16.60;99.90;;;16.90;69.56;97369.22;5042801;28;20045;-45
2022/06/25 01:52:26;;;;;;;4.35;1.98;;;16.60;99.90;;;16.91;69.59;97368.16;5042956;28;20049;-46
2022/06/25 01:54:55;;;;;;;3.65;1.98;;;16.60;99.90;;;16.92;69.24;97369.84;5042748;28;20041;-44
2022/06/25 01:57:23;;;;;;;2.30;1.90;;;16.60;99.90;;;16.89;69.37;97369.41;5043483;28;20061;-47
2022/06/25 01:59:52;;;;;;;2.85;1.90;;;16.50;99.90;;;16.89;69.31;97369.41;5042586;28;20053;-45
2022/06/25 02:02:21;;;;;;;5.22;2.10;;;16.50;99.90;;;16.86;69.42;97367.13;5042341;28;20384;-44
2022/06/25 02:04:50;;;;;;;2.78;2.03;;;16.50;99.90;;;16.86;69.47;97370.63;5042799;28;20356;-45
2022/06/25 02:07:18;;;;;;;3.67;1.95;;;16.50;99.90;;;16.79;69.37;97367.13;5042154;28;20041;-45
2022/06/25 02:09:46;;;;;;;2.40;2.00;;;16.40;99.90;;;16.81;69.32;97373.13;5041300;28;20149;-46
2022/06/25 02:12:14;;;;;;;2.80;2.03;;;16.50;99.90;;;16.81;69.26;97366.88;5040443;28;20049;-48
2022/06/25 02:14:42;;;;;;;2.45;1.83;;;16.50;99.90;;;16.79;69.48;97368.97;5041992;28;20045;-44
2022/06/25 02:17:10;;;;;;;5.53;2.03;;;16.50;99.90;;;16.77;69.25;97376.41;5042392;28;20239;-45
2022/06/25 02:19:37;;;;;;;4.05;2.13;;;16.40;99.90;;;16.74;69.38;97385.72;5041788;28;20056;-46
2022/06/25 02:22:05;;;;;;;5.28;2.30;;;16.40;99.90;;;16.68;69.56;97387.38;5042687;28;20056;-44
2022/06/25 02:24:33;;;;;;;2.65;1.88;;;16.30;99.90;;;16.68;69.65;97378.50;5042978;28;20049;-45
2022/06/25 02:27:01;;;;;;;2.30;2.10;;;16.30;99.90;;;16.67;69.45;97383.03;5058823;28;20084;-44
2022/06/25 02:29:32;;;;;;;3.63;2.05;;;16.40;99.90;;;16.67;69.53;97387.56;5041012;28;20045;-44
2022/06/25 02:32:01;;;;;;;3.88;2.10;;;16.40;99.90;;;16.65;69.51;97390.47;5043344;28;20123;-46
2022/06/25 02:34:29;;;;;;;7.55;3.00;;;16.40;99.90;;;16.64;69.46;97393.38;5042361;28;20049;-46
2022/06/25 02:36:57;;;;;;;2.97;1.88;;;16.30;99.90;;;16.65;69.60;97389.63;5042453;28;20045;-46
2022/06/25 02:39:28;;;;;;;5.05;2.20;;;16.30;99.90;;;16.66;69.72;97391.31;5041545;28;20379;-44
2022/06/25 02:41:56;;;;;;;6.75;3.53;;;16.40;99.90;;;16.65;69.59;97393.19;5057519;28;20060;-44
2022/06/25 02:44:25;;;;;;;4.28;2.03;;;16.40;99.90;;;16.65;69.31;97392.31;5040928;28;20057;-44
2022/06/25 02:46:55;;;;;;;2.70;2.17;;;16.30;99.90;;;16.67;69.46;97392.94;5041451;28;20049;-45
2022/06/25 02:49:28;;;;;;;4.60;1.95;;;16.40;99.90;;;16.65;69.26;97389.63;5041121;28;20061;-44
2022/06/25 02:51:57;;;;;;;2.85;2.08;;;16.40;99.90;;;16.69;69.09;97393.56;5040536;28;20052;-44
2022/06/25 02:54:26;;;;;;;2.00;1.90;;;16.40;99.90;;;16.69;69.25;97396.25;5040639;28;20049;-48
2022/06/25 02:59:45;;;;;;;4.47;2.17;;;16.40;99.90;;;16.63;69.20;97394.38;5057992;28;20052;-48
2022/06/25 03:02:13;;;;;;;2.15;1.55;;;16.30;99.90;;;16.60;69.18;97397.50;5040752;28;20049;-45
2022/06/25 03:04:44;;;;;;;3.50;1.80;;;16.20;99.90;;;16.59;69.13;97393.16;5040491;28;20049;-44
2022/06/25 03:07:12;;;;;;;2.72;1.95;;;16.20;99.90;;;16.54;69.56;97394.59;5041903;28;20067;-45
2022/06/25 03:09:40;;;;;;;2.10;1.83;;;16.20;99.90;;;16.56;69.15;97394.41;5041359;28;20051;-45
2022/06/25 03:12:08;;;;;;;2.95;2.10;;;16.20;99.90;;;16.58;69.32;97400.41;5056103;28;20089;-45
2022/06/25 03:14:40;;;;;;;2.22;1.75;;;16.30;99.90;;;16.59;69.29;97395.84;5041444;28;20059;-46
2022/06/25 03:17:09;;;;;;;6.18;2.00;;;16.30;99.90;;;16.61;69.16;97404.53;5056809;28;20055;-45
2022/06/25 03:20:00;;;;;;;2.95;1.80;;;16.30;99.90;;;16.60;69.16;97401.00;5051325;28;20053;-45
2022/06/25 03:22:39;;;;;;;3.00;1.67;;;16.30;99.90;;;16.62;68.75;97404.31;5060690;28;20053;-47
2022/06/25 03:25:07;;;;;;;2.30;1.90;;;16.40;99.90;;;16.67;68.93;97403.69;5044117;28;20055;-50
2022/06/25 03:27:35;;;;;;;1.95;1.50;;;16.40;99.90;;;16.69;68.84;97394.41;5045037;28;20049;-44
2022/06/25 03:30:10;;;;;;;4.13;1.90;;;16.50;99.90;;;16.69;68.74;97390.88;5044746;28;20049;-47
2022/06/25 03:32:40;;;;;;;4.72;2.40;;;16.50;99.90;;;16.70;68.61;97384.47;5045217;28;20049;-45
2022/06/25 03:35:30;;;;;;;2.78;1.70;;;16.50;99.90;;;16.72;68.38;97385.91;5043880;28;20057;-46
2022/06/25 03:38:19;;;;;;;5.45;1.77;;;16.50;99.90;;;16.72;68.46;97382.41;5044224;28;20060;-44
2022/06/25 03:40:48;;;;;;;4.63;1.85;;;16.50;99.90;;;16.71;68.65;97384.28;5061417;28;20053;-47
2022/06/25 03:43:18;;;;;;;1.73;1.60;;;16.50;99.90;;;16.72;68.59;97391.28;5044900;28;20061;-45
2022/06/25 03:45:47;;;;;;;2.10;1.80;;;16.50;99.90;;;16.76;68.39;97388.22;5045826;28;20041;-45
2022/06/25 03:48:16;;;;;;;2.75;1.88;;;16.50;99.90;;;16.74;68.49;97389.22;5044585;28;20049;-49
2022/06/25 03:51:06;;;;;;;3.33;1.65;;;16.50;99.90;;;16.73;68.17;97392.97;5045449;28;20053;-44
2022/06/25 03:53:34;;;;;;;4.30;1.95;;;16.50;99.90;;;16.74;68.33;97397.28;5043736;28;20140;-45
2022/06/25 03:56:03;;;;;;;2.40;1.38;;;16.50;99.90;;;16.74;68.32;97391.91;5044025;28;20053;-46
2022/06/25 03:58:38;;;;;;;2.65;1.63;;;16.50;99.90;;;16.74;68.13;97399.97;5044418;28;20368;-45
2022/06/25 04:01:06;;;;;;;2.20;1.80;;;16.50;99.90;;;16.73;68.24;97392.16;5043994;28;20061;-46
2022/06/25 04:03:35;;;;;;;2.60;1.95;;;16.50;99.90;;;16.73;68.03;97398.34;5044553;28;20100;-47
2022/06/25 04:06:08;;;;;;;3.97;1.67;;;16.50;99.90;;;16.77;68.18;97404.13;5044090;28;20053;-46
2022/06/25 04:08:47;;;;;;;3.65;1.70;;;16.50;99.90;;;16.76;68.16;97396.28;5043939;28;20042;-46
2022/06/25 04:11:17;;;;;;;2.85;2.55;;;16.50;99.90;;;16.78;68.06;97399.56;5043359;28;20049;-48
2022/06/25 04:13:50;;;;;;;1.95;1.70;;;16.50;99.90;;;16.78;67.94;97404.94;5044304;28;20061;-44
2022/06/25 04:16:18;;;;;;;2.72;1.58;;;16.50;99.90;;;16.77;68.26;97405.97;5043324;28;20049;-45
2022/06/25 04:18:46;;;;;;;1.88;1.58;;;16.50;99.90;;;16.80;68.21;97405.56;5044146;28;20072;-45
2022/06/25 04:21:18;;;;;;;3.58;1.70;;;16.50;99.90;;;16.81;68.08;97412.59;5044369;28;20286;-45
2022/06/25 04:23:46;;;;;;;2.20;1.70;;;16.60;99.90;;;16.84;68.15;97421.09;5060178;28;20054;-49
2022/06/25 04:26:16;;;;;;;2.92;1.80;;;16.60;99.90;;;16.86;68.04;97426.28;5060099;28;20065;-48
2022/06/25 04:31:53;;;;;;;2.38;1.60;;;16.60;99.90;;;16.88;68.21;97429.59;5059845;28;20056;-48
2022/06/25 04:34:39;;;;;;;2.58;1.58;;;16.60;99.90;;;16.88;68.11;97433.09;5046774;28;20047;-45
2022/06/25 04:37:07;;;;;;;2.88;1.50;;;16.60;99.90;;;16.90;68.24;97432.91;5044435;28;20042;-47
2022/06/25 04:39:35;;;;;;;3.45;1.60;;;16.60;99.90;;;16.91;68.04;97432.69;5042853;28;20156;-46
2022/06/25 04:42:03;;;;;;;1.95;1.70;;;16.70;99.90;;;16.91;68.23;97432.69;5043614;28;20053;-48
2022/06/25 04:44:31;;;;;;;2.83;1.67;;;16.70;99.90;;;16.92;68.30;97433.50;5059274;28;20053;-46
2022/06/25 04:46:59;;;;;;;1.90;1.50;;;16.60;99.90;;;16.92;68.30;97436.19;5043751;28;20054;-47
2022/06/25 04:49:42;;;;;;;3.03;1.67;;;16.70;99.90;;;16.96;68.21;97442.81;5043522;28;20049;-45
2022/06/25 04:52:10;;;;;;;5.60;1.90;;;16.70;99.90;;;16.99;68.19;97444.28;5043169;28;20244;-45
2022/06/25 04:54:38;;;;;;;2.15;1.92;;;16.70;99.90;;;16.98;68.26;97443.44;5044252;28;20041;-45
2022/06/25 04:57:15;;;;;;;1.95;1.63;;;16.80;99.90;;;17.01;68.44;97444.91;5027814;28;20064;-46
2022/06/25 05:00:03;;;;;;;2.25;1.70;;;16.80;99.90;;;17.03;68.41;97450.91;5045052;28;20056;-46
2022/06/25 05:02:35;;;;;;;3.20;1.60;;;16.80;99.90;;;17.06;68.31;97454.00;5060367;28;20049;-45
2022/06/25 05:05:10;;;;;;;4.55;2.08;;;16.80;99.90;;;17.12;68.44;97463.94;5043424;28;20075;-45
2022/06/25 05:07:38;;;;;;;3.10;1.75;;;16.90;99.90;;;17.17;68.30;97466.00;5043327;28;20061;-45
2022/06/25 05:10:06;;;;;;;3.10;1.70;;;17.00;99.90;;;17.21;68.28;97469.91;5042528;28;20041;-49
2022/06/25 05:15:22;;;;;;;4.40;1.85;;;17.10;99.90;;;17.25;68.10;97471.19;5059891;28;20067;-47
2022/06/25 05:17:49;;;;;;;2.22;2.03;;;17.10;99.90;;;17.28;68.49;97473.44;5043573;28;20283;-45
2022/06/25 05:20:21;;;;;;;3.30;1.70;;;17.10;99.90;;;17.30;68.36;97476.75;5060056;28;20049;-47
2022/06/25 05:22:49;;;;;;;2.97;1.70;;;17.10;99.90;;;17.32;68.29;97479.22;5043220;28;20106;-46
2022/06/25 05:25:18;;;;;;;3.55;1.77;;;17.10;99.90;;;17.36;68.31;97485.03;5043120;28;20059;-46
2022/06/25 05:27:45;;;;;;;4.10;1.83;;;17.20;99.90;;;17.41;68.26;97479.84;5043418;28;20229;-45
2022/06/25 05:30:14;;;;;;;2.20;1.65;;;17.30;99.90;;;17.42;68.29;97473.44;5043198;28;20045;-50
2022/06/25 05:32:42;;;;;;;1.60;1.48;;;17.30;99.90;;;17.44;68.33;97469.47;5043612;28;20041;-48
2022/06/25 05:35:09;;;;;;;3.05;1.63;;;17.30;99.90;;;17.50;68.30;97481.28;5041774;28;20050;-44
2022/06/25 05:37:37;;;;;;;4.25;1.90;;;17.30;99.90;;;17.55;68.28;97475.28;5042371;28;20127;-45
2022/06/25 05:40:06;;;;;;;4.40;1.83;;;17.40;99.90;;;17.58;68.46;97477.53;5043539;28;20049;-47
2022/06/25 05:42:34;;;;;;;3.97;2.15;;;17.50;99.90;;;17.63;68.34;97475.88;5042137;28;20053;-44
2022/06/25 05:45:03;;;;;;;4.10;1.88;;;17.50;99.90;;;17.69;68.35;97474.22;5042938;28;20049;-45
2022/06/25 05:47:31;;;;;;;4.20;1.90;;;17.50;99.90;;;17.73;68.37;97485.38;5043215;28;20375;-48
2022/06/25 05:49:59;;;;;;;2.42;2.10;;;17.60;99.90;;;17.76;68.34;97482.25;5043324;28;20048;-45
2022/06/25 05:52:27;;;;;;;4.43;1.88;;;17.70;99.90;;;17.81;68.53;97485.16;5042128;28;20045;-44
2022/06/25 05:54:55;;;;;;;2.08;1.83;;;17.70;99.90;;;17.84;68.39;97485.59;5043101;28;20076;-48
2022/06/25 05:57:23;;;;;;;2.42;1.85;;;17.80;99.90;;;17.88;68.40;97483.31;5043420;28;20052;-46
2022/06/25 05:59:50;;;;;;;2.05;1.85;;;17.80;99.90;;;17.93;68.21;97491.56;5042993;28;20372;-48
2022/06/25 06:02:18;;;;;;;3.30;2.30;;;17.80;99.90;;;17.97;68.58;97492.81;5043131;28;20061;-45
2022/06/25 06:04:46;;;;;;;3.03;2.03;;;17.90;99.90;;;18.00;68.40;97492.38;5042858;28;20054;-45
2022/06/25 06:07:14;;;;;;;3.35;2.13;;;17.90;99.90;;;18.04;68.51;97498.16;5042936;28;20053;-46
2022/06/25 06:09:42;;;;;;;2.17;1.83;;;18.00;99.90;;;18.06;68.48;97488.81;5042666;28;20045;-44
2022/06/25 06:12:10;;;;;;;4.88;1.95;;;18.00;99.90;;;18.10;68.44;97502.69;5042497;28;20239;-46
2022/06/25 06:14:37;;;;;;;2.60;2.00;;;18.10;99.90;;;18.16;68.58;97495.63;5042824;28;20052;-45
2022/06/25 06:17:05;;;;;;;2.05;1.85;;;18.10;99.90;;;18.19;68.57;97498.72;5042637;28;20328;-44
2022/06/25 06:19:33;;;;;;;3.17;2.25;;;18.20;99.90;;;18.26;68.50;97509.47;5042424;28;20053;-44
2022/06/25 06:22:01;;;;;;;3.55;1.90;;;18.20;99.90;;;18.30;68.50;97508.03;5042848;28;20049;-46
2022/06/25 06:24:29;;;;;;;2.50;2.05;;;18.30;99.90;;;18.35;68.31;97504.69;5042449;28;20247;-45
2022/06/25 06:26:57;;;;;;;1.75;1.65;;;18.30;99.90;;;18.39;68.21;97503.22;5042611;28;20274;-48
2022/06/25 06:29:25;;;;;;;3.70;1.90;;;18.40;99.90;;;18.43;68.58;97507.13;5043011;28;20057;-46
2022/06/25 06:31:52;;;;;;;2.10;1.90;;;18.40;99.90;;;18.48;68.54;97507.31;5042431;28;20049;-44
2022/06/25 06:34:20;;;;;;;2.60;2.08;;;18.50;99.90;;;18.53;68.56;97504.78;5042384;28;20052;-45
2022/06/25 06:36:48;;;;;;;2.30;2.10;;;18.50;99.90;;;18.58;68.64;97506.84;5042521;28;20045;-45
2022/06/25 06:39:16;;;;;;;3.30;2.53;;;18.60;99.90;;;18.62;68.61;97503.50;5042077;28;20055;-49
2022/06/25 06:41:44;;;;;;;4.93;3.08;;;18.60;99.90;;;18.67;68.67;97510.97;5042463;28;20064;-47
2022/06/25 06:44:13;;;;;;;3.80;2.30;;;18.70;99.90;;;18.70;69.22;97511.31;5042081;28;20045;-44
2022/06/25 06:46:41;;;;;;;3.20;2.25;;;18.80;99.90;;;18.78;68.96;97515.63;5042643;28;20245;-46
2022/06/25 06:49:09;;;;;;;4.18;1.98;;;18.80;99.90;;;18.84;68.90;97513.97;5041773;28;20352;-45
2022/06/25 06:51:37;;;;;;;5.80;2.58;;;18.90;99.90;;;18.89;68.65;97511.47;5043318;28;20366;-46
2022/06/25 06:54:05;;;;;;;2.92;2.00;;;18.90;99.90;;;18.95;68.66;97509.78;5042669;28;20057;-45
2022/06/25 06:56:32;;;;;;;2.95;1.80;;;19.00;99.90;;;19.00;68.59;97518.03;5041936;28;20053;-45
2022/06/25 06:59:01;;;;;;;3.83;2.10;;;19.00;99.90;;;19.04;68.35;97516.56;5042024;28;20072;-45
2022/06/25 07:01:28;;;;;;;2.83;2.10;;;19.10;99.90;;;19.07;68.25;97516.09;5042118;28;20053;-48
2022/06/25 07:03:56;;;;;;;2.53;2.05;;;19.10;99.90;;;19.11;67.94;97516.50;5042054;28;20057;-50
2022/06/25 07:06:24;;;;;;;3.60;2.33;;;19.20;99.90;;;19.16;67.62;97514.00;5041955;28;20049;-46
2022/06/25 07:08:52;;;;;;;3.97;2.05;;;19.20;99.90;;;19.18;67.55;97515.41;5042055;28;20060;-45
2022/06/25 07:11:30;;;;;;;2.22;2.03;;;19.20;99.90;;;19.22;67.68;97513.09;5041427;28;20263;-46
2022/06/25 07:14:01;;;;;;;4.95;2.28;;;19.30;99.90;;;19.26;67.50;97517.00;5041958;28;20045;-46
2022/06/25 07:16:30;;;;;;;3.55;2.05;;;19.30;99.90;;;19.31;67.36;97519.88;5041875;28;20037;-45
2022/06/25 07:18:59;;;;;;;3.20;2.10;;;19.40;99.90;;;19.32;67.29;97510.72;5041776;28;20051;-45
2022/06/25 07:21:29;;;;;;;2.45;2.10;;;19.40;99.90;;;19.36;67.27;97505.72;5042686;28;20063;-44
2022/06/25 07:23:57;;;;;;;2.55;2.20;;;19.50;99.90;;;19.39;67.13;97505.28;5042197;28;20060;-45
2022/06/25 07:26:25;;;;;;;7.10;2.35;;;19.50;99.90;;;19.44;66.99;97508.97;5042008;28;20053;-46
2022/06/25 07:28:54;;;;;;;2.20;1.98;;;19.60;99.90;;;19.50;66.68;97509.94;5041429;28;20049;-45
2022/06/25 07:31:22;;;;;;;3.55;2.00;;;19.60;99.90;;;19.52;66.66;97513.25;5041860;28;20055;-46
2022/06/25 07:33:51;;;;;;;3.50;2.30;;;19.70;99.90;;;19.56;66.20;97511.78;5042428;28;20046;-46
2022/06/25 07:36:18;;;;;;;3.17;2.22;;;19.60;99.90;;;19.58;66.05;97509.69;5042038;28;20280;-45
2022/06/25 07:38:47;;;;;;;4.28;2.70;;;19.70;99.90;;;19.59;65.54;97500.50;5040426;28;20116;-47
2022/06/25 07:41:15;;;;;;;2.83;2.45;;;19.60;99.90;;;19.64;65.35;97513.38;5042215;28;20243;-45
2022/06/25 07:43:42;;;;;;;6.00;2.30;;;19.70;99.90;;;19.68;65.26;97506.47;5041671;28;20348;-45
2022/06/25 07:46:10;;;;;;;3.25;1.95;;;19.80;99.90;;;19.72;65.04;97507.72;5041135;28;20348;-47
2022/06/25 07:48:39;;;;;;;2.38;2.00;;;19.90;99.90;;;19.79;64.93;97503.06;5041379;28;20239;-48
2022/06/25 07:53:53;;;;;;;3.00;2.10;;;20.00;99.90;;;19.89;64.93;97499.84;5041563;28;20041;-45
2022/06/25 07:56:22;;;;;;;3.33;2.05;;;20.10;99.90;;;19.95;64.79;97498.09;5041803;28;20059;-46
2022/06/25 07:58:49;;;;;;;3.95;2.30;;;20.10;99.90;;;19.99;64.81;97496.63;5041156;28;20064;-45
2022/06/25 08:01:17;;;;;;;2.13;1.90;;;20.20;99.90;;;20.04;64.92;97486.78;5041631;28;20050;-47
2022/06/25 08:03:45;;;;;;;3.20;2.38;;;20.20;99.90;;;20.08;64.51;97486.31;5041676;28;20357;-44
2022/06/25 08:06:13;;;;;;;5.30;2.33;;;20.30;99.90;;;20.14;64.68;97485.41;5041353;28;20042;-48
2022/06/25 08:08:41;;;;;;;2.25;2.00;;;20.30;99.90;;;20.18;64.41;97483.91;5044338;28;20049;-45
2022/06/25 08:11:10;;;;;;;3.30;2.58;;;20.40;99.90;;;20.19;63.90;97474.75;5044218;28;20271;-46
2022/06/25 08:13:38;;;;;;;4.88;2.10;;;20.40;99.90;;;20.24;63.73;97483.03;5030161;28;20241;-47
2022/06/25 08:16:09;;;;;;;2.75;2.22;;;20.50;99.90;;;20.34;63.39;97485.19;5024831;28;20064;-46
2022/06/25 08:18:38;;;;;;;3.72;2.05;;;20.60;99.90;;;20.38;63.66;97489.91;5025050;28;20238;-48
2022/06/25 08:21:06;;;;;;;2.67;2.13;;;20.60;99.90;;;20.43;63.46;97481.09;5025165;28;20046;-46
2022/06/25 08:23:34;;;;;;;2.20;1.90;;;20.60;99.90;;;20.47;63.23;97479.59;5025068;28;20370;-47
2022/06/25 08:26:02;;;;;;;4.75;2.60;;;20.60;99.90;;;20.51;63.20;97485.38;5025513;28;20053;-44
2022/06/25 08:28:30;;;;;;;5.63;2.78;;;20.70;99.90;;;20.56;62.88;97486.34;5024897;28;20057;-47
2022/06/25 08:30:58;;;;;;;2.85;1.92;;;20.80;99.90;;;20.62;62.87;97482.75;5025398;28;20056;-46
2022/06/25 08:33:26;;;;;;;2.95;2.17;;;20.80;99.90;;;20.68;62.41;97483.69;5024766;28;20352;-45
2022/06/25 08:35:54;;;;;;;4.57;2.38;;;20.90;99.90;;;20.76;61.93;97485.25;5023604;28;20048;-43
2022/06/25 08:38:23;;;;;;;3.20;1.80;;;21.00;99.90;;;20.80;61.74;97479.16;5024534;28;20248;-46
2022/06/25 08:40:59;;;;;;;3.28;2.30;;;21.00;99.90;;;20.86;62.01;97477.44;5025248;28;20053;-45
2022/06/25 08:43:27;;;;;;;3.53;2.28;;;21.10;99.90;;;20.92;60.93;97475.66;5024368;28;20056;-45
2022/06/25 08:45:56;;;;;;;3.45;2.20;;;21.20;99.90;;;20.96;61.18;97476.88;5024557;28;20061;-45
2022/06/25 08:48:30;;;;;;;3.22;2.05;;;21.20;99.90;;;21.04;60.92;97473.81;5024462;28;20050;-44
2022/06/25 08:50:59;;;;;;;3.15;2.03;;;21.30;99.90;;;21.08;60.03;97482.28;5024422;28;20041;-44
2022/06/25 08:53:33;;;;;;;2.25;1.98;;;21.40;99.90;;;21.14;60.60;97476.75;5024572;28;20344;-44
2022/06/25 08:56:02;;;;;;;2.80;2.08;;;21.40;99.90;;;21.17;60.06;97470.06;5025042;28;20046;-44
2022/06/25 08:58:30;;;;;;;6.13;2.10;;;21.40;99.90;;;21.20;59.63;97475.00;5024257;28;20458;-45
2022/06/25 09:00:58;;;;;;;2.35;2.10;;;21.50;99.90;;;21.23;59.28;97472.66;5024301;28;20244;-46
2022/06/25 09:03:26;;;;;;;2.65;2.42;;;21.50;96.60;;;21.26;59.00;97465.13;5024383;28;20225;-45
2022/06/25 09:05:54;;;;;;;2.90;2.00;;;21.40;91.50;;;21.19;58.66;97457.94;5024616;28;20060;-46
2022/06/25 09:08:22;;;;;;;2.92;2.13;;;21.40;90.90;;;21.24;58.76;97458.06;5023931;28;20054;-44
2022/06/25 09:10:54;;;;;;;3.28;2.17;;;21.40;91.10;;;21.30;58.15;97460.91;5023433;28;20247;-46
2022/06/25 09:13:25;;;;;;;4.63;2.00;;;21.50;89.10;;;21.35;57.42;97459.13;5024297;28;20048;-46
2022/06/25 09:15:53;;;;;;;2.97;2.15;;;21.60;88.70;;;21.42;57.77;97462.56;5023935;28;20050;-44
2022/06/25 09:18:21;;;;;;;2.75;1.95;;;21.60;87.30;;;21.43;57.57;97457.97;5023238;28;20049;-47
2022/06/25 09:21:08;;;;;;;3.47;1.85;;;21.60;86.00;;;21.45;57.41;97452.34;5023867;28;20336;-50
2022/06/25 09:24:00;;;;;;;3.22;2.00;;;21.70;81.20;;;21.44;57.39;97443.38;5024615;28;20050;-48
2022/06/25 09:26:28;;;;;;;3.53;2.08;;;21.60;83.10;;;21.52;57.95;97439.50;5023825;28;20317;-47
2022/06/25 09:29:01;;;;;;;1.83;1.65;;;21.70;87.10;;;21.55;58.07;97439.03;5022243;28;20069;-44
2022/06/25 09:31:38;;;;;;;3.53;1.67;;;21.70;84.70;;;21.61;57.22;97443.50;5024159;28;20049;-47
2022/06/25 09:34:08;;;;;;;2.67;2.17;;;21.80;83.70;;;21.67;58.01;97447.13;5024803;28;20052;-46
2022/06/25 09:36:37;;;;;;;3.38;2.10;;;21.90;85.40;;;21.73;57.80;97441.63;5024137;28;20056;-43
2022/06/25 09:39:05;;;;;;;2.45;2.25;;;22.00;84.70;;;21.79;56.95;97434.41;5023384;28;20041;-44
2022/06/25 09:41:53;;;;;;;2.22;1.65;;;22.00;81.00;;;21.74;56.22;97431.59;5023570;28;20052;-45
2022/06/25 09:44:22;;;;;;;3.70;2.13;;;22.00;76.00;;;21.77;56.18;97434.66;5023123;28;20050;-44
2022/06/25 09:46:55;;;;;;;10.13;2.10;;;22.00;79.50;;;21.85;56.28;97435.31;5024126;28;20064;-44
2022/06/25 09:49:24;;;;;;;3.03;1.95;;;22.10;76.70;;;21.90;56.09;97441.69;5023736;28;20053;-45
2022/06/25 09:52:00;;;;;;;2.05;1.83;;;22.10;76.60;;;21.93;55.56;97433.09;5023932;28;20341;-45
2022/06/25 09:54:28;;;;;;;3.05;2.17;;;22.20;74.60;;;22.01;55.28;97434.59;5023302;28;20049;-47
2022/06/25 09:56:56;;;;;;;3.17;1.90;;;22.30;74.40;;;22.06;55.27;97434.69;5023464;28;20075;-48
2022/06/25 09:59:28;;;;;;;3.53;2.08;;;22.30;72.90;;;22.10;54.67;97427.75;5022103;28;20053;-48
2022/06/25 10:01:58;;;;;;;2.10;1.67;;;22.40;71.20;;;22.15;54.46;97429.72;5022233;28;20225;-49
2022/06/25 10:04:28;;;;;;;2.58;2.00;;;22.50;70.80;;;22.18;54.81;97434.69;5021926;28;20063;-49
2022/06/25 10:06:57;;;;;;;2.92;2.10;;;22.50;71.30;;;22.26;54.96;97437.03;5022150;28;20049;-46
2022/06/25 10:09:25;;;;;;;4.43;2.28;;;22.60;71.00;;;22.35;54.53;97437.47;5022699;28;20072;-48
2022/06/25 10:11:54;;;;;;;2.78;2.10;;;22.70;70.10;;;22.48;54.15;97428.22;5021209;28;20046;-46
2022/06/25 10:14:22;;;;;;;3.28;1.98;;;22.80;68.70;;;22.53;54.35;97417.47;5021838;28;20240;-51
2022/06/25 10:16:51;;;;;;;2.58;1.85;;;22.90;68.70;;;22.60;54.28;97413.53;5021888;28;20355;-46
2022/06/25 10:19:24;;;;;;;3.30;1.90;;;23.00;68.40;;;22.73;53.75;97414.28;5022800;28;20045;-46
2022/06/25 10:21:53;;;;;;;3.28;2.05;;;23.10;67.90;;;22.82;52.98;97412.81;5021797;28;20056;-47
2022/06/25 10:24:21;;;;;;;2.22;2.00;;;23.20;66.90;;;22.87;53.22;97415.59;5021728;28;20362;-47
2022/06/25 10:26:49;;;;;;;4.10;2.00;;;23.30;66.50;;;22.91;52.86;97408.63;5021687;28;20352;-46
2022/06/25 10:29:24;;;;;;;4.28;1.95;;;23.30;65.40;;;22.91;50.76;97397.75;5022210;28;20041;-44
2022/06/25 10:32:16;;;;;;;2.63;2.00;;;23.30;61.80;;;23.00;51.88;97401.72;5022609;28;20044;-45
2022/06/25 10:34:58;;;;;;;2.30;1.83;;;23.40;61.10;;;23.11;51.87;97402.75;5021619;28;20045;-45
2022/06/25 10:37:26;;;;;;;2.43;2.00;;;23.50;61.80;;;23.21;51.40;97407.50;5022563;28;20232;-46
2022/06/25 10:39:56;;;;;;;5.50;2.38;;;23.70;63.60;;;23.32;50.81;97403.88;5022738;28;20285;-47
2022/06/25 10:45:15;;;;;;;2.30;1.88;;;23.90;61.30;;;23.51;51.47;97406.28;5022567;28;20064;-44